createdAt,value
2019-03-30T00:04:58.780Z,101335.70
2019-03-30T00:10:01.368Z,101348.16
2019-03-30T00:15:04.082Z,101337.30
2019-03-30T00:20:07.541Z,101337.98
2019-03-30T00:25:10.099Z,101338.61
2019-03-30T00:30:12.785Z,101336.72
2019-03-30T00:35:15.701Z,101336.56
2019-03-30T00:40:18.662Z,101346.73
2019-03-30T00:45:21.306Z,101344.84
2019-03-30T00:50:23.923Z,101345.00
2019-03-30T00:55:26.564Z,101339.84
2019-03-30T01:00:29.310Z,101344.20
2019-03-30T01:05:31.863Z,101334.19
2019-03-30T01:10:34.476Z,101347.31
2019-03-30T01:15:37.148Z,101341.77
2019-03-30T01:20:39.796Z,101341.02
2019-03-30T01:25:42.396Z,101334.67
2019-03-30T01:30:45.031Z,101333.70
2019-03-30T01:35:47.682Z,101336.32
2019-03-30T01:40:50.379Z,101338.02
2019-03-30T01:45:52.949Z,101330.84
2019-03-30T01:50:55.554Z,101326.19
2019-03-30T01:55:58.481Z,101320.27
2019-03-30T02:01:01.134Z,101307.16
2019-03-30T02:06:04.205Z,101304.98
2019-03-30T02:11:06.890Z,101307.77
2019-03-30T02:16:09.471Z,101304.14
2019-03-30T02:21:12.120Z,101303.53
2019-03-30T02:26:14.757Z,101303.31
2019-03-30T02:31:17.412Z,101298.36
2019-03-30T02:36:20.012Z,101298.80
2019-03-30T02:41:22.748Z,101296.50
2019-03-30T02:46:25.367Z,101300.67
2019-03-30T02:51:27.968Z,101284.89
2019-03-30T02:56:30.580Z,101284.95
2019-03-30T03:01:33.286Z,101281.97
2019-03-30T03:06:35.871Z,101283.56
2019-03-30T03:11:38.522Z,101278.85
2019-03-30T03:16:41.159Z,101277.25
2019-03-30T03:21:43.786Z,101274.86
2019-03-30T03:26:46.475Z,101275.25
2019-03-30T03:31:49.141Z,101280.02
2019-03-30T03:36:51.772Z,101275.17
2019-03-30T03:41:54.351Z,101271.58
2019-03-30T03:46:56.960Z,101277.31
2019-03-30T03:52:00.723Z,101270.25
2019-03-30T03:57:03.688Z,101269.98
2019-03-30T04:02:09.358Z,101261.96
2019-03-30T04:07:12.773Z,101258.75
2019-03-30T04:12:17.075Z,101260.03
2019-03-30T04:17:19.808Z,101252.19
2019-03-30T04:22:23.516Z,101256.46
2019-03-30T04:27:26.170Z,101253.72
2019-03-30T04:32:28.815Z,101257.27
2019-03-30T04:37:31.411Z,101262.89
2019-03-30T04:42:34.134Z,101259.39
2019-03-30T04:47:36.779Z,101255.23
2019-03-30T04:52:39.447Z,101248.67
2019-03-30T04:57:42.036Z,101249.19
2019-03-30T05:02:44.772Z,101252.27
2019-03-30T05:07:47.390Z,101253.20
2019-03-30T05:12:49.962Z,101259.08
2019-03-30T05:17:52.566Z,101259.25
2019-03-30T05:22:55.231Z,101266.23
2019-03-30T05:27:57.842Z,101264.55
2019-03-30T05:33:05.999Z,101266.16
2019-03-30T05:38:05.104Z,101267.37
2019-03-30T05:43:07.718Z,101268.34
2019-03-30T05:48:10.361Z,101275.23
2019-03-30T05:53:12.979Z,101275.37
2019-03-30T05:58:15.580Z,101266.52
2019-03-30T06:03:18.394Z,101270.53
2019-03-30T06:08:21.016Z,101267.56
2019-03-30T06:13:23.713Z,101266.52
2019-03-30T06:18:26.311Z,101270.17
2019-03-30T06:23:29.017Z,101271.20
2019-03-30T06:28:31.666Z,101272.20
2019-03-30T06:33:34.410Z,101273.83
2019-03-30T06:38:37.426Z,101280.83
2019-03-30T06:43:43.686Z,101274.77
2019-03-30T06:48:46.313Z,101272.31
2019-03-30T06:53:49.102Z,101271.30
2019-03-30T06:58:51.761Z,101268.78
2019-03-30T07:03:54.877Z,101272.36
2019-03-30T07:08:58.305Z,101273.63
2019-03-30T07:14:02.853Z,101277.06
2019-03-30T07:19:05.411Z,101272.28
2019-03-30T07:24:08.036Z,101269.55
2019-03-30T07:29:10.696Z,101267.34
2019-03-30T07:34:13.264Z,101267.42
2019-03-30T07:39:15.909Z,101264.92
2019-03-30T07:44:18.990Z,101259.32
2019-03-30T07:49:21.665Z,101259.25
2019-03-30T07:54:24.287Z,101253.69
2019-03-30T07:59:26.888Z,101261.53
2019-03-30T08:04:29.627Z,101253.55
2019-03-30T08:09:32.267Z,101257.72
2019-03-30T08:14:35.004Z,101257.52
2019-03-30T08:19:37.600Z,101252.64
2019-03-30T08:24:46.084Z,101248.34
2019-03-30T08:29:48.949Z,101248.34
2019-03-30T08:34:51.560Z,101255.30
2019-03-30T08:39:54.293Z,101252.16
2019-03-30T08:44:57.431Z,101252.16
2019-03-30T08:50:00.025Z,101245.95
2019-03-30T08:55:02.839Z,101234.40
2019-03-30T09:00:06.518Z,101242.12
2019-03-30T09:05:10.943Z,101240.09
2019-03-30T09:10:13.729Z,101235.80
2019-03-30T09:15:16.397Z,101226.92
2019-03-30T09:20:20.175Z,101223.50
2019-03-30T09:25:22.890Z,101217.56
2019-03-30T09:30:25.747Z,101224.82
2019-03-30T09:35:28.615Z,101212.45
2019-03-30T09:40:31.998Z,101210.20
2019-03-30T09:45:34.632Z,101188.98
2019-03-30T09:50:37.254Z,101201.73
2019-03-30T09:55:39.885Z,101195.84
2019-03-30T10:00:42.529Z,101191.06
2019-03-30T10:05:45.196Z,101188.44
2019-03-30T10:10:49.242Z,101187.62
2019-03-30T10:15:51.910Z,101195.33
2019-03-30T10:20:54.567Z,101187.78
2019-03-30T10:25:57.177Z,101170.61
2019-03-30T10:31:00.179Z,101162.31
2019-03-30T10:36:02.961Z,101145.36
2019-03-30T10:41:05.751Z,101149.86
2019-03-30T10:46:16.965Z,101143.64
2019-03-30T10:51:19.837Z,101136.45
2019-03-30T10:56:22.593Z,101133.09
2019-03-30T11:01:25.475Z,101122.63
2019-03-30T11:06:28.185Z,101110.20
2019-03-30T11:11:30.935Z,101100.59
2019-03-30T11:16:33.673Z,101098.09
2019-03-30T11:21:36.522Z,101085.16
2019-03-30T11:26:41.104Z,101079.69
2019-03-30T11:31:43.861Z,101071.99
2019-03-30T11:36:46.624Z,101075.70
2019-03-30T11:41:51.785Z,101067.90
2019-03-30T11:46:54.500Z,101056.69
2019-03-30T11:51:57.155Z,101041.28
2019-03-30T11:56:59.858Z,101037.02
2019-03-30T12:02:05.373Z,101038.03
2019-03-30T12:07:08.108Z,101031.00
2019-03-30T12:12:10.706Z,101018.75
2019-03-30T12:17:13.331Z,101019.67
2019-03-30T12:22:15.977Z,101014.09
2019-03-30T12:27:18.957Z,101009.30
2019-03-30T12:32:23.697Z,101010.98
2019-03-30T12:37:26.325Z,101002.43
2019-03-30T12:42:29.046Z,100988.96
2019-03-30T12:47:31.715Z,100982.52
2019-03-30T12:52:34.612Z,100969.88
2019-03-30T12:57:37.317Z,100965.83
2019-03-30T13:02:39.985Z,100962.45
2019-03-30T13:07:42.708Z,100943.27
2019-03-30T13:12:45.420Z,100941.92
2019-03-30T13:17:48.039Z,100930.67
2019-03-30T13:22:50.639Z,100932.01
2019-03-30T13:27:53.531Z,100928.47
2019-03-30T13:32:56.249Z,100917.44
2019-03-30T13:37:59.956Z,100915.42
2019-03-30T13:43:03.099Z,100907.03
2019-03-30T13:48:05.846Z,100904.52
2019-03-30T13:53:09.118Z,100898.44
2019-03-30T13:58:11.774Z,100891.75
2019-03-30T14:03:14.561Z,100879.77
2019-03-30T14:08:17.256Z,100874.20
2019-03-30T14:13:19.938Z,100878.52
2019-03-30T14:18:25.578Z,100864.91
2019-03-30T14:23:28.339Z,100856.00
2019-03-30T14:28:30.954Z,100858.02
2019-03-30T14:33:33.589Z,100842.54
2019-03-30T14:38:37.857Z,100842.74
2019-03-30T14:43:40.542Z,100843.05
2019-03-30T14:48:43.321Z,100835.12
2019-03-30T14:53:46.037Z,100824.14
2019-03-30T14:58:48.713Z,100825.80
2019-03-30T15:03:51.432Z,100822.80
2019-03-30T15:08:54.076Z,100822.45
2019-03-30T15:13:56.701Z,100799.86
2019-03-30T15:18:59.383Z,100799.37
2019-03-30T15:24:02.073Z,100792.98
2019-03-30T15:29:04.774Z,100791.70
2019-03-30T15:34:07.459Z,100782.37
2019-03-30T15:39:10.154Z,100774.59
2019-03-30T15:44:12.855Z,100657.31
2019-03-30T15:49:15.690Z,100738.70
2019-03-30T15:54:22.961Z,100733.80
2019-03-30T15:59:28.803Z,100761.39
2019-03-30T16:04:31.508Z,100755.57
2019-03-30T16:09:34.542Z,100753.15
2019-03-30T16:14:37.394Z,100748.50
2019-03-30T16:19:40.258Z,100749.60
2019-03-30T16:24:43.725Z,100739.55
2019-03-30T16:29:46.471Z,100735.37
2019-03-30T16:34:49.522Z,100736.98
2019-03-30T16:39:52.317Z,100730.84
2019-03-30T16:44:54.932Z,100729.50
2019-03-30T16:49:57.680Z,100722.60
2019-03-30T16:55:00.633Z,100729.80
2019-03-30T17:00:04.390Z,100727.23
2019-03-30T17:05:07.687Z,100723.13
2019-03-30T17:10:10.771Z,100723.55
2019-03-30T17:16:35.593Z,100725.57
2019-03-30T17:21:38.347Z,100730.65
2019-03-30T17:26:40.967Z,100728.98
2019-03-30T17:31:43.601Z,100727.16
2019-03-30T17:36:46.351Z,100733.57
2019-03-30T17:41:48.946Z,100732.85
2019-03-30T17:46:51.624Z,100732.98
2019-03-30T17:51:54.292Z,100735.30
2019-03-30T17:56:56.906Z,100735.37
2019-03-30T18:01:59.593Z,100739.77
2019-03-30T18:07:02.526Z,100735.06
2019-03-30T18:12:05.190Z,100742.30
2019-03-30T18:17:07.804Z,100748.08
2019-03-30T18:22:10.472Z,100750.95
2019-03-30T18:27:13.067Z,100756.02
2019-03-30T18:32:16.759Z,100756.36
2019-03-30T18:37:20.220Z,100759.52
2019-03-30T18:42:22.865Z,100758.78
2019-03-30T18:47:25.483Z,100761.50
2019-03-30T18:52:28.423Z,100775.80
2019-03-30T18:57:31.258Z,100778.52
2019-03-30T19:02:33.984Z,100781.48
2019-03-30T19:07:36.837Z,100783.34
2019-03-30T19:12:39.421Z,100786.95
2019-03-30T19:17:42.161Z,100790.61
2019-03-30T19:22:44.801Z,100788.62
2019-03-30T19:27:47.441Z,100790.94
2019-03-30T19:32:50.194Z,100791.12
2019-03-30T19:37:53.160Z,100785.16
2019-03-30T19:42:55.798Z,100791.75
2019-03-30T19:47:58.403Z,100797.45
2019-03-30T19:53:01.104Z,100793.67
2019-03-30T19:58:03.816Z,100791.48
2019-03-30T20:03:06.597Z,100804.06
2019-03-30T20:08:12.290Z,100802.16
2019-03-30T20:13:13.798Z,100794.41
2019-03-30T20:18:16.394Z,100800.42
2019-03-30T20:23:19.118Z,100795.14
2019-03-30T20:28:21.733Z,100800.17
2019-03-30T20:33:24.427Z,100802.22
2019-03-30T20:38:27.188Z,100800.39
2019-03-30T20:43:29.804Z,100797.06
2019-03-30T20:48:32.422Z,100798.70
2019-03-30T20:53:35.120Z,100802.93
2019-03-30T20:58:37.771Z,100799.31
2019-03-30T21:03:40.417Z,100801.30
2019-03-30T21:08:43.150Z,100797.78
2019-03-30T21:13:45.758Z,100802.63
2019-03-30T21:18:48.471Z,100799.83
2019-03-30T21:23:51.097Z,100803.88
2019-03-30T21:28:53.769Z,100807.05
2019-03-30T21:33:56.393Z,100810.78
2019-03-30T21:38:59.023Z,100805.39
2019-03-30T21:44:01.660Z,100813.73
2019-03-30T21:49:04.258Z,100809.78
2019-03-30T21:54:06.877Z,100809.27
2019-03-30T21:59:09.455Z,100810.41
2019-03-30T22:04:12.030Z,100816.13
2019-03-30T22:09:14.865Z,100815.85
2019-03-30T22:14:17.452Z,100825.87
2019-03-30T22:19:20.067Z,100829.05
2019-03-30T22:24:22.704Z,100834.15
2019-03-30T22:29:25.339Z,100830.63
2019-03-30T22:34:27.887Z,100826.94
2019-03-30T22:39:30.533Z,100833.14
2019-03-30T22:44:33.268Z,100835.70
2019-03-30T22:49:35.973Z,100836.87
2019-03-30T22:54:39.040Z,100835.06
2019-03-30T22:59:41.716Z,100831.69
2019-03-30T23:04:44.499Z,100833.34
2019-03-30T23:09:47.392Z,100837.52
2019-03-30T23:14:50.351Z,100832.88
2019-03-30T23:19:53.286Z,100826.50
2019-03-30T23:24:55.927Z,100822.09
2019-03-30T23:29:58.639Z,100810.98
2019-03-30T23:35:01.324Z,100818.00
2019-03-30T23:40:04.779Z,100815.12
2019-03-30T23:45:07.630Z,100812.78
2019-03-30T23:50:10.325Z,100816.34
2019-03-30T23:55:13.252Z,100821.00
